Time;durP1;ratioP1;P1;durP2;ratioP2;P2;SDS_P1;SDS_P2;PMS_P1;PMS_P2;Temp;Humidity;BMP_temperature;BMP_pressure;BME280_temperature;BME280_humidity;BME280_pressure;Samples;Min_cycle;Max_cycle;Signal;HPM_P1;HPM_P2
2022/09/20 00:00:49;;;;;;;3.33;2.60;;;;;;;;;;4969128;28;20199;-79
2022/09/20 00:03:18;;;;;;;3.20;2.90;;;;;;;;;;4955592;28;20284;-82
2022/09/20 00:05:46;;;;;;;4.43;2.47;;;;;;;;;;4960915;28;20733;-81
2022/09/20 00:08:15;;;;;;;3.80;2.70;;;;;;;;;;4969588;28;20234;-81
2022/09/20 00:10:43;;;;;;;4.00;2.70;;;;;;;;;;4955555;28;20261;-81
2022/09/20 00:13:11;;;;;;;2.70;2.43;;;;;;;;;;4971872;28;20237;-81
2022/09/20 00:15:40;;;;;;;4.03;2.80;;;;;;;;;;4974962;28;20624;-81
2022/09/20 00:18:08;;;;;;;3.17;2.77;;;;;;;;;;4974932;28;20237;-81
2022/09/20 00:20:36;;;;;;;2.90;2.40;;;;;;;;;;4974579;28;20252;-79
2022/09/20 00:23:03;;;;;;;5.87;3.00;;;;;;;;;;4972071;28;20230;-79
2022/09/20 00:25:32;;;;;;;4.93;2.63;;;;;;;;;;4964011;28;20245;-79
2022/09/20 00:28:00;;;;;;;3.47;3.10;;;;;;;;;;4961017;28;20226;-79
2022/09/20 00:30:28;;;;;;;4.63;2.70;;;;;;;;;;4972448;28;20206;-79
2022/09/20 00:32:55;;;;;;;3.87;3.00;;;;;;;;;;4966606;28;20199;-79
2022/09/20 00:35:21;;;;;;;3.57;2.90;;;;;;;;;;4966345;28;20241;-79
2022/09/20 00:37:50;;;;;;;3.50;2.90;;;;;;;;;;4962993;28;20689;-79
2022/09/20 00:40:19;;;;;;;3.53;3.00;;;;;;;;;;4966311;28;20296;-79
2022/09/20 00:42:46;;;;;;;3.50;3.20;;;;;;;;;;4964414;28;20670;-79
2022/09/20 00:45:20;;;;;;;4.33;2.97;;;;;;;;;;4966094;28;20210;-79
2022/09/20 00:47:48;;;;;;;3.73;3.37;;;;;;;;;;4962356;28;20230;-79
2022/09/20 00:50:23;;;;;;;3.57;3.27;;;;;;;;;;4955469;28;20737;-79
2022/09/20 00:52:53;;;;;;;5.20;3.30;;;;;;;;;;4958111;28;20205;-79
2022/09/20 00:55:20;;;;;;;4.07;3.50;;;;;;;;;;4965721;28;20203;-78
2022/09/20 00:57:48;;;;;;;4.60;3.40;;;;;;;;;;4964972;28;20205;-79
2022/09/20 01:00:16;;;;;;;4.03;3.63;;;;;;;;;;4970313;28;20591;-79
2022/09/20 01:02:46;;;;;;;5.03;3.53;;;;;;;;;;4964341;28;20234;-79
2022/09/20 01:05:15;;;;;;;6.07;3.40;;;;;;;;;;4968774;28;20269;-79
2022/09/20 01:07:43;;;;;;;5.17;3.20;;;;;;;;;;4972329;28;20288;-79
2022/09/20 01:10:11;;;;;;;4.27;3.37;;;;;;;;;;4961639;28;20677;-79
2022/09/20 01:12:40;;;;;;;4.03;2.80;;;;;;;;;;4973408;28;20712;-79
2022/09/20 01:15:08;;;;;;;5.50;3.30;;;;;;;;;;4956597;28;20292;-79
2022/09/20 01:17:37;;;;;;;3.57;3.13;;;;;;;;;;4974137;28;20604;-79
2022/09/20 01:20:13;;;;;;;3.60;3.10;;;;;;;;;;4970239;28;20645;-79
2022/09/20 01:22:44;;;;;;;3.50;3.20;;;;;;;;;;4966018;28;20267;-79
2022/09/20 01:25:16;;;;;;;4.40;3.40;;;;;;;;;;4962936;28;20570;-79
2022/09/20 01:27:46;;;;;;;6.53;3.40;;;;;;;;;;4963848;28;20291;-79
2022/09/20 01:30:15;;;;;;;3.80;3.43;;;;;;;;;;4957335;28;20204;-79
2022/09/20 01:32:46;;;;;;;3.87;3.47;;;;;;;;;;4961124;28;20245;-79
2022/09/20 01:35:14;;;;;;;4.93;3.60;;;;;;;;;;4961690;28;20207;-79
2022/09/20 01:37:47;;;;;;;3.83;3.37;;;;;;;;;;4961201;28;20267;-79
2022/09/20 01:40:19;;;;;;;3.90;3.50;;;;;;;;;;4962293;28;20242;-79
2022/09/20 01:42:52;;;;;;;3.53;3.23;;;;;;;;;;4973161;28;20206;-79
2022/09/20 01:45:21;;;;;;;6.50;3.60;;;;;;;;;;4973363;28;20235;-78
2022/09/20 01:47:53;;;;;;;5.07;3.30;;;;;;;;;;4968861;28;20275;-79
2022/09/20 01:50:26;;;;;;;4.03;3.43;;;;;;;;;;4962116;28;20241;-81
2022/09/20 01:53:14;;;;;;;4.60;3.50;;;;;;;;;;4969154;28;20208;-81
2022/09/20 01:55:55;;;;;;;4.67;3.60;;;;;;;;;;4958420;28;20226;-81
2022/09/20 01:58:40;;;;;;;3.70;3.40;;;;;;;;;;4962363;28;20204;-81
2022/09/20 02:01:23;;;;;;;4.27;3.70;;;;;;;;;;4961463;28;20637;-81
2022/09/20 02:03:58;;;;;;;4.07;3.67;;;;;;;;;;4963106;28;20262;-81
2022/09/20 02:06:43;;;;;;;4.20;3.80;;;;;;;;;;4960412;28;20239;-81
2022/09/20 02:09:19;;;;;;;3.90;3.53;;;;;;;;;;4964878;28;20219;-81
2022/09/20 02:11:54;;;;;;;4.37;3.70;;;;;;;;;;4971585;28;20394;-81
2022/09/20 02:14:32;;;;;;;4.60;4.20;;;;;;;;;;4969132;28;20214;-81
2022/09/20 02:17:06;;;;;;;4.37;3.80;;;;;;;;;;4968140;28;20230;-81
2022/09/20 02:19:36;;;;;;;4.77;3.60;;;;;;;;;;4953660;28;20199;-81
2022/09/20 02:22:24;;;;;;;4.40;3.67;;;;;;;;;;4963565;28;20257;-81
2022/09/20 02:24:56;;;;;;;4.20;3.80;;;;;;;;;;4967045;28;20638;-81
2022/09/20 02:27:26;;;;;;;5.37;4.33;;;;;;;;;;4957260;28;20286;-81
2022/09/20 02:30:01;;;;;;;4.40;4.00;;;;;;;;;;4969334;28;20318;-81
2022/09/20 02:32:40;;;;;;;4.77;3.90;;;;;;;;;;4973174;28;20289;-81
2022/09/20 02:35:22;;;;;;;4.63;4.23;;;;;;;;;;4963766;28;20203;-81
2022/09/20 02:38:02;;;;;;;4.67;4.03;;;;;;;;;;4952984;28;20743;-81
2022/09/20 02:40:39;;;;;;;4.30;3.90;;;;;;;;;;4964724;28;20202;-81
2022/09/20 02:43:11;;;;;;;5.63;4.00;;;;;;;;;;4960685;28;20234;-81
2022/09/20 02:45:43;;;;;;;5.10;4.13;;;;;;;;;;4957611;28;20273;-81
2022/09/20 02:48:15;;;;;;;4.47;4.00;;;;;;;;;;4956491;28;20249;-81
2022/09/20 02:50:46;;;;;;;4.63;3.90;;;;;;;;;;4972342;28;20672;-81
2022/09/20 02:53:21;;;;;;;4.10;3.70;;;;;;;;;;4971640;28;20242;-81
2022/09/20 02:55:50;;;;;;;4.03;3.60;;;;;;;;;;4961515;28;20198;-81
2022/09/20 02:58:25;;;;;;;3.90;3.30;;;;;;;;;;4967639;28;20304;-81
2022/09/20 03:00:55;;;;;;;4.00;3.63;;;;;;;;;;4964388;28;20678;-81
2022/09/20 03:03:31;;;;;;;4.67;3.87;;;;;;;;;;4971665;28;20284;-81
2022/09/20 03:06:01;;;;;;;5.27;3.70;;;;;;;;;;4963602;28;20234;-81
2022/09/20 03:08:32;;;;;;;4.23;3.80;;;;;;;;;;4971715;28;20242;-81
2022/09/20 03:11:04;;;;;;;4.40;3.80;;;;;;;;;;4965128;28;20220;-81
2022/09/20 03:13:41;;;;;;;4.30;3.90;;;;;;;;;;4964848;28;20290;-81
2022/09/20 03:16:12;;;;;;;6.97;4.10;;;;;;;;;;4961014;28;20285;-81
2022/09/20 03:18:47;;;;;;;5.17;4.40;;;;;;;;;;4959172;28;20234;-81
2022/09/20 03:21:23;;;;;;;4.10;3.70;;;;;;;;;;4970155;28;20296;-81
2022/09/20 03:23:55;;;;;;;6.07;3.90;;;;;;;;;;4974964;28;20257;-81
2022/09/20 03:26:29;;;;;;;4.47;3.90;;;;;;;;;;4974247;28;20230;-81
2022/09/20 03:29:00;;;;;;;5.47;4.40;;;;;;;;;;4965145;28;20253;-81
2022/09/20 03:31:34;;;;;;;4.57;4.17;;;;;;;;;;4960564;28;20241;-81
2022/09/20 03:34:07;;;;;;;5.00;4.50;;;;;;;;;;4956959;28;20238;-81
2022/09/20 03:36:42;;;;;;;7.17;4.80;;;;;;;;;;4956500;28;20206;-81
2022/09/20 03:39:16;;;;;;;6.47;4.43;;;;;;;;;;4956125;28;20206;-81
2022/09/20 03:41:59;;;;;;;5.00;4.50;;;;;;;;;;4970971;28;20205;-81
2022/09/20 03:44:33;;;;;;;6.90;4.30;;;;;;;;;;4971158;28;20250;-81
2022/09/20 03:47:04;;;;;;;5.17;4.53;;;;;;;;;;4954848;28;20205;-81
2022/09/20 03:49:49;;;;;;;5.73;4.73;;;;;;;;;;4965588;28;20305;-82
2022/09/20 03:52:23;;;;;;;5.53;4.67;;;;;;;;;;4974141;28;20285;-81
2022/09/20 03:55:04;;;;;;;8.20;4.70;;;;;;;;;;4975192;28;20251;-81
2022/09/20 03:57:49;;;;;;;5.27;4.77;;;;;;;;;;4974404;28;20244;-81
2022/09/20 04:00:24;;;;;;;5.47;4.77;;;;;;;;;;4974014;28;20756;-81
2022/09/20 04:03:12;;;;;;;5.63;5.10;;;;;;;;;;4974384;28;20300;-81
2022/09/20 04:05:49;;;;;;;5.17;4.67;;;;;;;;;;4962262;28;20656;-81
2022/09/20 04:08:21;;;;;;;6.13;4.73;;;;;;;;;;4955015;28;20321;-81
2022/09/20 04:10:57;;;;;;;5.20;4.60;;;;;;;;;;4955686;28;20305;-82
2022/09/20 04:13:31;;;;;;;8.10;5.60;;;;;;;;;;4955016;28;20243;-81
2022/09/20 04:16:05;;;;;;;6.37;4.90;;;;;;;;;;4969278;28;20289;-81
2022/09/20 04:18:36;;;;;;;9.23;4.83;;;;;;;;;;4974924;28;20266;-81
2022/09/20 04:21:08;;;;;;;5.83;5.20;;;;;;;;;;4974932;28;20209;-81
2022/09/20 04:23:40;;;;;;;6.13;5.47;;;;;;;;;;4972205;28;20668;-81
2022/09/20 04:26:08;;;;;;;6.33;4.97;;;;;;;;;;4974733;28;20246;-81
2022/09/20 04:28:38;;;;;;;5.63;4.97;;;;;;;;;;4967080;28;20309;-81
2022/09/20 04:31:10;;;;;;;5.63;4.90;;;;;;;;;;4974055;28;20226;-81
2022/09/20 04:33:41;;;;;;;5.70;5.00;;;;;;;;;;4973085;28;20203;-81
2022/09/20 04:36:28;;;;;;;5.90;5.30;;;;;;;;;;4973328;28;20290;-81
2022/09/20 04:39:00;;;;;;;5.50;5.00;;;;;;;;;;4963307;28;20554;-81
2022/09/20 04:41:50;;;;;;;5.30;4.80;;;;;;;;;;4970533;28;20209;-82
2022/09/20 04:44:38;;;;;;;7.87;5.60;;;;;;;;;;4966820;28;20204;-81
2022/09/20 04:47:34;;;;;;;6.10;5.40;;;;;;;;;;4963355;28;20289;-81
2022/09/20 04:50:21;;;;;;;8.27;5.03;;;;;;;;;;4956721;28;20225;-81
2022/09/20 04:53:08;;;;;;;5.93;5.33;;;;;;;;;;4973920;28;20211;-81
2022/09/20 04:55:57;;;;;;;7.60;5.63;;;;;;;;;;4982800;28;20625;-82
2022/09/20 04:58:41;;;;;;;7.83;5.37;;;;;;;;;;4965793;28;20675;-82
2022/09/20 05:01:42;;;;;;;7.00;5.43;;;;;;;;;;4975965;28;20211;-82
2022/09/20 05:04:35;;;;;;;6.63;5.63;;;;;;;;;;4981816;28;20231;-79
2022/09/20 05:07:18;;;;;;;10.33;5.70;;;;;;;;;;4980669;28;20238;-80
2022/09/20 05:09:54;;;;;;;7.07;5.37;;;;;;;;;;4913568;29;20899;-80
2022/09/20 05:12:42;;;;;;;7.17;5.40;;;;;;;;;;4913660;29;20236;-80
2022/09/20 05:15:17;;;;;;;7.37;5.40;;;;;;;;;;4912867;29;20241;-80
2022/09/20 05:18:00;;;;;;;6.20;5.43;;;;;;;;;;4913174;29;20659;-78
2022/09/20 05:20:42;;;;;;;9.53;5.67;;;;;;;;;;4913890;29;20209;-78
2022/09/20 05:23:24;;;;;;;6.67;5.53;;;;;;;;;;4909416;29;20211;-79
2022/09/20 05:26:03;;;;;;;7.60;6.00;;;;;;;;;;4913962;29;20200;-79
2022/09/20 05:28:34;;;;;;;7.60;5.90;;;;;;;;;;4912201;29;20256;-79
2022/09/20 05:31:06;;;;;;;10.03;6.03;;;;;;;;;;4912301;29;20269;-79
2022/09/20 05:33:38;;;;;;;7.23;5.97;;;;;;;;;;4903315;29;20671;-78
2022/09/20 05:36:08;;;;;;;8.33;5.70;;;;;;;;;;4907715;29;20241;-79
2022/09/20 05:38:41;;;;;;;8.47;6.40;;;;;;;;;;4907639;29;20483;-78
2022/09/20 05:41:12;;;;;;;7.73;6.33;;;;;;;;;;4913037;29;20289;-79
2022/09/20 05:43:43;;;;;;;7.80;6.40;;;;;;;;;;4905885;29;20211;-80
2022/09/20 05:46:20;;;;;;;8.00;6.47;;;;;;;;;;4919978;28;20259;-83
2022/09/20 05:48:53;;;;;;;8.03;6.90;;;;;;;;;;4970978;28;20305;-78
2022/09/20 05:51:28;;;;;;;8.30;6.97;;;;;;;;;;4959563;28;20259;-81
2022/09/20 05:54:07;;;;;;;7.40;6.57;;;;;;;;;;4961845;28;20197;-81
2022/09/20 05:56:37;;;;;;;7.57;6.17;;;;;;;;;;4953460;28;20245;-81
2022/09/20 05:59:16;;;;;;;7.10;6.40;;;;;;;;;;4965066;28;20208;-82
2022/09/20 06:01:57;;;;;;;10.97;6.77;;;;;;;;;;4970842;28;20223;-81
2022/09/20 06:04:26;;;;;;;9.47;6.80;;;;;;;;;;4956300;28;20680;-82
2022/09/20 06:06:58;;;;;;;8.83;6.13;;;;;;;;;;4964242;28;20320;-81
2022/09/20 06:09:45;;;;;;;6.30;5.70;;;;;;;;;;4958839;28;20207;-82
2022/09/20 06:12:22;;;;;;;6.23;5.63;;;;;;;;;;4961268;28;20287;-82
2022/09/20 06:14:52;;;;;;;7.20;5.67;;;;;;;;;;4961621;28;20203;-82
2022/09/20 06:17:27;;;;;;;6.87;6.03;;;;;;;;;;4961559;28;20200;-83
2022/09/20 06:20:06;;;;;;;6.07;5.47;;;;;;;;;;4969446;28;20206;-82
2022/09/20 06:22:35;;;;;;;6.87;6.10;;;;;;;;;;4973066;28;20213;-82
2022/09/20 06:25:04;;;;;;;6.20;5.60;;;;;;;;;;4973207;28;20287;-82
2022/09/20 06:27:35;;;;;;;8.80;6.00;;;;;;;;;;4972749;28;20230;-82
2022/09/20 06:30:05;;;;;;;8.20;6.07;;;;;;;;;;4976761;28;20229;-82
2022/09/20 06:32:34;;;;;;;11.67;7.07;;;;;;;;;;4976759;28;20297;-82
2022/09/20 06:35:02;;;;;;;9.47;7.33;;;;;;;;;;4974489;28;20210;-82
2022/09/20 06:43:18;;;;;;;7.07;6.37;;;;;;;;;;4965874;28;20270;-81
2022/09/20 06:45:46;;;;;;;7.60;6.20;;;;;;;;;;4976314;28;20200;-81
2022/09/20 06:48:18;;;;;;;7.23;6.00;;;;;;;;;;4975892;28;20206;-81
2022/09/20 06:50:45;;;;;;;5.40;4.90;;;;;;;;;;4975205;28;20224;-81
2022/09/20 06:53:16;;;;;;;6.10;4.70;;;;;;;;;;4976492;28;20208;-81
2022/09/20 06:55:44;;;;;;;5.40;4.37;;;;;;;;;;4976092;28;20202;-81
2022/09/20 06:58:12;;;;;;;5.23;4.03;;;;;;;;;;4976671;28;20293;-81
2022/09/20 07:00:39;;;;;;;5.77;4.17;;;;;;;;;;4975684;28;20241;-79
2022/09/20 07:03:07;;;;;;;4.40;4.00;;;;;;;;;;4975988;28;20207;-79
2022/09/20 07:05:36;;;;;;;4.10;3.70;;;;;;;;;;4975477;28;20236;-82
2022/09/20 07:08:03;;;;;;;4.70;3.73;;;;;;;;;;4976069;28;20260;-78
2022/09/20 07:10:30;;;;;;;5.10;4.17;;;;;;;;;;4975390;28;20321;-80
2022/09/20 07:12:59;;;;;;;4.57;4.00;;;;;;;;;;4976453;28;20635;-78
2022/09/20 07:15:27;;;;;;;10.00;4.70;;;;;;;;;;4976129;28;20206;-78
2022/09/20 07:17:54;;;;;;;5.97;4.00;;;;;;;;;;4975770;28;20207;-80
2022/09/20 07:20:21;;;;;;;4.18;3.80;;;;;;;;;;4975870;28;20237;-78
2022/09/20 07:22:51;;;;;;;6.10;4.18;;;;;;;;;;4975542;28;20640;-78
2022/09/20 07:25:18;;;;;;;4.85;4.05;;;;;;;;;;4975537;28;20654;-78
2022/09/20 07:27:46;;;;;;;4.13;3.72;;;;;;;;;;4975964;28;20579;-78
2022/09/20 07:30:14;;;;;;;5.07;3.58;;;;;;;;;;4976202;28;20238;-78
2022/09/20 07:32:41;;;;;;;5.20;3.35;;;;;;;;;;4975831;28;20282;-78
2022/09/20 07:35:09;;;;;;;4.05;3.13;;;;;;;;;;4975809;28;20294;-79
2022/09/20 07:37:37;;;;;;;4.25;3.35;;;;;;;;;;4964852;28;20286;-80
2022/09/20 07:40:06;;;;;;;7.85;3.80;;;;;;;;;;4955915;28;20295;-81
2022/09/20 07:42:33;;;;;;;3.72;3.20;;;;;;;;;;4956311;28;20203;-81
2022/09/20 07:45:02;;;;;;;3.85;3.25;;;;;;;;;;4956573;28;20286;-79
2022/09/20 07:47:30;;;;;;;3.95;3.25;;;;;;;;;;4956875;28;20207;-78
2022/09/20 07:49:58;;;;;;;5.78;3.80;;;;;;;;;;4955867;28;20734;-79
2022/09/20 07:52:25;;;;;;;5.05;4.55;;;;;;;;;;4956681;28;20242;-79
2022/09/20 07:54:52;;;;;;;4.65;3.90;;;;;;;;;;4955651;28;20249;-79
2022/09/20 07:57:21;;;;;;;4.55;3.85;;;;;;;;;;4956222;28;20199;-81
2022/09/20 07:59:48;;;;;;;4.05;3.70;;;;;;;;;;4955797;28;20610;-79
2022/09/20 08:02:16;;;;;;;4.03;3.63;;;;;;;;;;4964740;28;20301;-79
2022/09/20 08:04:43;;;;;;;4.63;3.20;;;;;;;;;;4974741;28;20634;-79
2022/09/20 08:07:11;;;;;;;3.95;3.03;;;;;;;;;;4965739;28;20266;-79
2022/09/20 08:09:38;;;;;;;3.20;2.90;;;;;;;;;;4966899;28;20258;-79
2022/09/20 08:12:07;;;;;;;3.95;3.50;;;;;;;;;;4971622;28;20266;-79
2022/09/20 08:14:36;;;;;;;3.20;2.88;;;;;;;;;;4969529;28;20203;-79
2022/09/20 08:17:03;;;;;;;3.63;2.85;;;;;;;;;;4964813;28;20670;-79
2022/09/20 08:19:30;;;;;;;5.53;2.70;;;;;;;;;;4974096;28;20256;-79
2022/09/20 08:21:57;;;;;;;3.55;2.72;;;;;;;;;;4970211;28;20760;-79
2022/09/20 08:24:26;;;;;;;4.43;2.60;;;;;;;;;;4975513;28;20237;-79
2022/09/20 08:26:53;;;;;;;4.75;2.40;;;;;;;;;;4985673;28;20199;-79
2022/09/20 08:29:20;;;;;;;3.85;2.65;;;;;;;;;;4985991;28;20670;-79
2022/09/20 08:31:49;;;;;;;3.47;2.47;;;;;;;;;;4970872;28;20320;-79
2022/09/20 08:34:16;;;;;;;3.22;2.60;;;;;;;;;;4962670;28;20651;-79
2022/09/20 08:36:45;;;;;;;4.05;2.40;;;;;;;;;;4965534;28;20293;-79
2022/09/20 08:39:12;;;;;;;2.92;2.47;;;;;;;;;;4967296;28;20554;-79
2022/09/20 08:41:43;;;;;;;4.60;2.15;;;;;;;;;;4967379;28;20197;-79
2022/09/20 08:44:13;;;;;;;3.03;2.15;;;;;;;;;;4973030;28;20202;-79
2022/09/20 08:46:43;;;;;;;4.15;2.20;;;;;;;;;;4994154;28;20260;-79
2022/09/20 08:49:17;;;;;;;6.88;2.45;;;;;;;;;;4986363;28;20202;-79
2022/09/20 08:51:49;;;;;;;10.30;2.60;;;;;;;;;;4971571;28;20768;-79
2022/09/20 08:54:17;;;;;;;5.72;1.90;;;;;;;;;;4973320;28;20285;-79
2022/09/20 08:56:45;;;;;;;3.35;1.70;;;;;;;;;;4969991;28;20238;-79
2022/09/20 08:59:15;;;;;;;3.17;1.40;;;;;;;;;;4955191;28;20210;-79
2022/09/20 09:01:42;;;;;;;4.55;1.50;;;;;;;;;;4964417;28;20226;-79
2022/09/20 09:04:14;;;;;;;4.38;1.42;;;;;;;;;;4966347;28;20715;-79
2022/09/20 09:06:41;;;;;;;2.03;1.38;;;;;;;;;;4968951;28;20209;-79
2022/09/20 09:09:10;;;;;;;2.60;1.30;;;;;;;;;;4981113;28;20240;-79
2022/09/20 09:11:39;;;;;;;2.53;1.33;;;;;;;;;;4965497;28;20760;-80
2022/09/20 09:14:46;;;;;;;3.17;1.30;;;;;;;;;;4961725;28;20260;-79
2022/09/20 09:16:55;;;;;;;2.95;1.40;;;;;;;;;;4975544;28;20206;-79
2022/09/20 09:19:28;;;;;;;2.78;1.23;;;;;;;;;;4971906;28;20241;-79
2022/09/20 09:21:57;;;;;;;3.08;1.40;;;;;;;;;;4969270;28;20738;-79
2022/09/20 09:24:25;;;;;;;2.55;1.40;;;;;;;;;;4963763;28;20203;-79
2022/09/20 09:27:05;;;;;;;3.70;1.30;;;;;;;;;;4963675;28;20195;-79
2022/09/20 09:29:35;;;;;;;1.10;0.98;;;;;;;;;;4962645;28;20206;-79
2022/09/20 09:32:19;;;;;;;2.13;1.40;;;;;;;;;;4960729;28;20281;-79
2022/09/20 09:34:48;;;;;;;2.35;1.40;;;;;;;;;;4969669;28;20276;-79
2022/09/20 09:37:27;;;;;;;2.28;1.23;;;;;;;;;;4954523;28;20214;-79
2022/09/20 09:40:08;;;;;;;2.03;1.33;;;;;;;;;;4955658;28;20242;-79
2022/09/20 09:42:35;;;;;;;2.40;0.95;;;;;;;;;;4972772;28;20280;-79
2022/09/20 09:45:12;;;;;;;1.33;0.88;;;;;;;;;;4983583;28;20202;-79
2022/09/20 09:47:40;;;;;;;2.35;1.00;;;;;;;;;;4984055;28;20238;-78
2022/09/20 09:50:21;;;;;;;2.85;1.00;;;;;;;;;;4962641;28;20234;-79
2022/09/20 09:52:58;;;;;;;3.42;1.02;;;;;;;;;;4977179;28;20201;-79
2022/09/20 09:55:26;;;;;;;1.60;1.10;;;;;;;;;;4962684;28;20199;-79
2022/09/20 09:57:57;;;;;;;2.35;0.80;;;;;;;;;;4970973;28;20205;-79
2022/09/20 10:00:26;;;;;;;1.45;0.90;;;;;;;;;;4985672;28;20222;-79
2022/09/20 10:03:17;;;;;;;1.42;1.10;;;;;;;;;;4968603;28;20210;-79
2022/09/20 10:05:52;;;;;;;1.52;0.70;;;;;;;;;;4956803;28;20199;-78
2022/09/20 10:08:23;;;;;;;1.63;0.70;;;;;;;;;;4965635;28;20238;-82
2022/09/20 10:10:58;;;;;;;2.00;0.90;;;;;;;;;;4972335;28;20296;-79
2022/09/20 10:13:29;;;;;;;1.90;1.00;;;;;;;;;;4973793;28;20198;-79
2022/09/20 10:16:00;;;;;;;2.10;1.13;;;;;;;;;;4987124;28;20210;-79
2022/09/20 10:18:34;;;;;;;1.17;0.90;;;;;;;;;;4983145;28;20202;-78
2022/09/20 10:21:13;;;;;;;2.42;0.80;;;;;;;;;;4975359;28;20229;-78
2022/09/20 10:23:58;;;;;;;2.08;1.15;;;;;;;;;;4979763;28;20238;-80
2022/09/20 10:26:36;;;;;;;1.58;1.00;;;;;;;;;;4978633;28;20243;-79
2022/09/20 10:29:08;;;;;;;1.08;0.80;;;;;;;;;;4965394;28;20214;-79
2022/09/20 10:31:43;;;;;;;1.08;0.80;;;;;;;;;;4975338;28;20658;-79
2022/09/20 10:34:17;;;;;;;2.45;1.00;;;;;;;;;;4971599;28;20288;-81
2022/09/20 10:36:50;;;;;;;1.33;0.90;;;;;;;;;;4972698;28;20216;-81
2022/09/20 10:39:19;;;;;;;4.15;0.95;;;;;;;;;;4973798;28;20230;-81
2022/09/20 10:44:53;;;;;;;1.23;0.85;;;;;;;;;;4972829;28;20346;-81
2022/09/20 10:47:30;;;;;;;2.90;0.88;;;;;;;;;;4958649;28;20642;-81
2022/09/20 10:50:03;;;;;;;2.03;0.70;;;;;;;;;;4984087;28;20549;-81
2022/09/20 10:52:53;;;;;;;2.08;1.00;;;;;;;;;;4973968;28;20706;-81
2022/09/20 10:55:25;;;;;;;1.13;0.90;;;;;;;;;;4977597;28;20270;-82
2022/09/20 10:58:09;;;;;;;1.30;0.90;;;;;;;;;;4976247;28;20290;-81
2022/09/20 11:00:44;;;;;;;2.03;1.00;;;;;;;;;;4991795;28;20301;-81
2022/09/20 11:03:20;;;;;;;2.85;0.93;;;;;;;;;;4975811;28;20202;-81
2022/09/20 11:05:54;;;;;;;1.83;0.88;;;;;;;;;;4965439;28;20258;-81
2022/09/20 11:08:25;;;;;;;3.03;1.10;;;;;;;;;;4962832;28;20378;-82
2022/09/20 11:10:54;;;;;;;1.20;1.00;;;;;;;;;;4956548;28;20289;-81
2022/09/20 11:13:25;;;;;;;1.30;0.90;;;;;;;;;;4970754;28;20591;-82
2022/09/20 11:15:54;;;;;;;1.92;1.00;;;;;;;;;;4974159;28;20210;-81
2022/09/20 11:18:23;;;;;;;1.00;0.90;;;;;;;;;;4976324;28;20199;-81
2022/09/20 11:20:54;;;;;;;4.35;1.02;;;;;;;;;;4966146;28;20291;-81
2022/09/20 11:23:25;;;;;;;1.63;1.00;;;;;;;;;;4956852;28;20234;-81
2022/09/20 11:25:53;;;;;;;1.50;0.90;;;;;;;;;;4974707;28;20206;-81
2022/09/20 11:28:24;;;;;;;1.65;1.17;;;;;;;;;;4976035;28;20276;-82
2022/09/20 11:30:54;;;;;;;3.92;1.23;;;;;;;;;;4975170;28;20643;-81
2022/09/20 11:33:23;;;;;;;1.92;1.30;;;;;;;;;;4975752;28;20232;-81
2022/09/20 11:35:52;;;;;;;2.22;1.23;;;;;;;;;;4975335;28;20678;-81
2022/09/20 11:38:23;;;;;;;2.25;1.23;;;;;;;;;;4975253;28;20202;-81
2022/09/20 11:40:54;;;;;;;3.00;1.40;;;;;;;;;;4975218;28;20249;-81
2022/09/20 11:43:24;;;;;;;2.83;1.93;;;;;;;;;;4974871;28;20214;-80
2022/09/20 11:45:54;;;;;;;3.73;1.83;;;;;;;;;;4975040;28;20203;-81
2022/09/20 11:48:25;;;;;;;3.88;1.60;;;;;;;;;;4964194;28;20254;-81
2022/09/20 11:51:06;;;;;;;2.60;1.50;;;;;;;;;;4956212;28;20203;-80
2022/09/20 11:53:55;;;;;;;3.47;1.80;;;;;;;;;;4956391;28;20282;-81
2022/09/20 11:56:25;;;;;;;6.17;1.83;;;;;;;;;;4956063;28;20282;-81
2022/09/20 11:58:54;;;;;;;4.20;1.73;;;;;;;;;;4964220;28;20226;-81
2022/09/20 12:01:25;;;;;;;1.97;1.40;;;;;;;;;;4974845;28;20207;-81
2022/09/20 12:03:54;;;;;;;3.57;1.70;;;;;;;;;;4975065;28;20198;-81
2022/09/20 12:06:27;;;;;;;2.67;1.40;;;;;;;;;;4974762;28;20277;-81
2022/09/20 12:08:56;;;;;;;2.90;1.30;;;;;;;;;;4974939;28;20613;-81
2022/09/20 12:11:29;;;;;;;2.70;1.30;;;;;;;;;;4974921;28;20281;-81
2022/09/20 12:14:01;;;;;;;2.23;1.17;;;;;;;;;;4974636;28;20682;-81
2022/09/20 12:16:39;;;;;;;4.00;1.60;;;;;;;;;;4975163;28;20342;-81
2022/09/20 12:19:07;;;;;;;3.10;1.33;;;;;;;;;;4975275;28;20198;-81
2022/09/20 12:21:49;;;;;;;1.37;1.20;;;;;;;;;;4974809;28;20234;-81
2022/09/20 12:24:22;;;;;;;2.07;1.70;;;;;;;;;;4958636;28;20719;-81
2022/09/20 12:26:58;;;;;;;1.88;1.10;;;;;;;;;;4955522;28;20735;-81
2022/09/20 12:29:53;;;;;;;3.65;1.10;;;;;;;;;;4966453;28;20291;-81
2022/09/20 12:32:43;;;;;;;3.28;1.10;;;;;;;;;;4974413;28;20630;-81
2022/09/20 12:35:29;;;;;;;2.70;1.30;;;;;;;;;;4974548;28;20253;-81
2022/09/20 12:37:56;;;;;;;1.52;0.95;;;;;;;;;;4974593;28;20608;-81
2022/09/20 12:40:24;;;;;;;1.40;1.13;;;;;;;;;;4974365;28;20290;-82
2022/09/20 12:42:56;;;;;;;2.30;1.13;;;;;;;;;;4974309;28;20580;-81
2022/09/20 12:45:23;;;;;;;1.45;0.90;;;;;;;;;;4974256;28;20285;-82
2022/09/20 12:47:53;;;;;;;2.15;1.00;;;;;;;;;;4972914;28;20202;-82
2022/09/20 12:53:13;;;;;;;1.10;0.93;;;;;;;;;;4933748;29;20982;-82
2022/09/20 12:55:45;;;;;;;1.67;1.33;;;;;;;;;;4933595;29;20245;-82
2022/09/20 12:58:22;;;;;;;1.08;0.98;;;;;;;;;;4933190;29;20239;-82
2022/09/20 13:00:51;;;;;;;4.05;1.48;;;;;;;;;;4949672;29;20278;-82
2022/09/20 13:03:27;;;;;;;1.40;1.30;;;;;;;;;;4952839;29;20263;-82
2022/09/20 13:06:11;;;;;;;1.98;1.58;;;;;;;;;;4952654;29;20671;-82
2022/09/20 13:08:41;;;;;;;4.45;1.80;;;;;;;;;;4951748;29;20250;-82
2022/09/20 13:11:13;;;;;;;1.92;1.50;;;;;;;;;;4952610;29;20930;-82
2022/09/20 13:13:44;;;;;;;3.08;1.60;;;;;;;;;;4951805;29;20234;-82
2022/09/20 13:16:21;;;;;;;2.22;1.45;;;;;;;;;;4952167;29;20199;-82
2022/09/20 13:18:49;;;;;;;3.00;1.60;;;;;;;;;;4952106;29;20202;-82
2022/09/20 13:21:16;;;;;;;2.38;1.40;;;;;;;;;;4952591;29;20290;-82
2022/09/20 13:23:46;;;;;;;3.10;1.90;;;;;;;;;;4952178;29;20619;-82
2022/09/20 13:26:15;;;;;;;3.03;1.75;;;;;;;;;;4951899;29;20295;-82
2022/09/20 13:28:47;;;;;;;2.00;1.80;;;;;;;;;;4953477;28;20702;-82
2022/09/20 13:31:25;;;;;;;2.03;1.67;;;;;;;;;;4972663;28;20552;-82
2022/09/20 13:33:52;;;;;;;1.67;1.50;;;;;;;;;;4973022;28;20230;-82
2022/09/20 13:36:22;;;;;;;2.60;1.77;;;;;;;;;;4954600;28;20285;-83
2022/09/20 13:38:50;;;;;;;3.55;1.75;;;;;;;;;;4961697;28;20198;-83
2022/09/20 13:41:17;;;;;;;3.03;1.95;;;;;;;;;;4973545;28;20209;-83
2022/09/20 13:43:47;;;;;;;4.00;1.90;;;;;;;;;;4961543;28;20223;-82
2022/09/20 13:46:15;;;;;;;3.15;2.35;;;;;;;;;;4954403;28;20207;-83
2022/09/20 13:48:43;;;;;;;3.17;2.75;;;;;;;;;;4957555;28;20202;-82
2022/09/20 13:51:17;;;;;;;5.10;2.42;;;;;;;;;;4966382;28;20232;-83
2022/09/20 13:53:45;;;;;;;4.32;2.50;;;;;;;;;;4954548;28;20262;-83
2022/09/20 13:56:17;;;;;;;2.85;1.70;;;;;;;;;;4953973;28;20207;-82
2022/09/20 13:58:47;;;;;;;2.58;2.03;;;;;;;;;;4958133;28;20617;-83
2022/09/20 14:01:22;;;;;;;1.98;1.75;;;;;;;;;;4973316;28;20202;-84
2022/09/20 14:03:49;;;;;;;3.05;1.63;;;;;;;;;;4973092;28;20272;-83
2022/09/20 14:06:16;;;;;;;4.20;2.65;;;;;;;;;;4973110;28;20210;-83
2022/09/20 14:08:46;;;;;;;3.92;2.00;;;;;;;;;;4972852;28;20753;-83
2022/09/20 14:11:16;;;;;;;5.22;3.00;;;;;;;;;;4965904;28;20262;-83
2022/09/20 14:13:44;;;;;;;6.50;2.40;;;;;;;;;;4953561;28;20230;-83
2022/09/20 14:16:14;;;;;;;3.35;1.80;;;;;;;;;;4965582;28;20289;-82
2022/09/20 14:18:41;;;;;;;3.25;1.83;;;;;;;;;;4956965;28;20207;-83
2022/09/20 14:21:09;;;;;;;2.47;1.92;;;;;;;;;;4953817;28;20207;-82
2022/09/20 14:23:50;;;;;;;2.90;2.10;;;;;;;;;;4953534;28;20199;-82
2022/09/20 14:26:25;;;;;;;3.13;1.77;;;;;;;;;;4952821;28;20203;-83
2022/09/20 14:28:52;;;;;;;2.42;1.85;;;;;;;;;;4953091;29;20238;-82
2022/09/20 14:31:22;;;;;;;2.60;2.00;;;;;;;;;;4953715;28;20249;-82
2022/09/20 14:33:51;;;;;;;3.58;1.75;;;;;;;;;;4954002;28;20285;-82
2022/09/20 14:36:20;;;;;;;2.47;1.83;;;;;;;;;;4969495;28;20238;-82
2022/09/20 14:38:48;;;;;;;2.05;1.70;;;;;;;;;;4972938;28;20694;-82
2022/09/20 14:41:24;;;;;;;2.30;1.95;;;;;;;;;;4967298;28;20235;-82
2022/09/20 14:43:54;;;;;;;2.42;1.92;;;;;;;;;;4965333;28;20666;-82
2022/09/20 14:46:29;;;;;;;2.40;1.77;;;;;;;;;;4973423;28;20241;-82
2022/09/20 14:49:16;;;;;;;3.88;1.73;;;;;;;;;;4973840;28;20620;-83
2022/09/20 14:51:44;;;;;;;3.40;2.00;;;;;;;;;;4976714;28;20249;-82
2022/09/20 14:54:25;;;;;;;2.83;2.20;;;;;;;;;;4976432;28;20321;-82
2022/09/20 14:56:53;;;;;;;3.35;1.80;;;;;;;;;;4975685;28;20262;-82
2022/09/20 14:59:22;;;;;;;2.63;2.20;;;;;;;;;;4976966;28;20293;-82
2022/09/20 15:01:58;;;;;;;2.30;1.88;;;;;;;;;;4975521;28;20720;-82
2022/09/20 15:04:26;;;;;;;3.70;2.10;;;;;;;;;;4976332;28;20237;-82
2022/09/20 15:06:54;;;;;;;2.22;2.03;;;;;;;;;;4974791;28;20660;-83
2022/09/20 15:09:22;;;;;;;3.13;2.40;;;;;;;;;;4975855;28;20301;-82
2022/09/20 15:11:59;;;;;;;5.50;2.35;;;;;;;;;;4975825;28;20194;-82
2022/09/20 15:14:26;;;;;;;3.55;2.00;;;;;;;;;;4976006;28;20202;-82
2022/09/20 15:16:54;;;;;;;3.10;2.30;;;;;;;;;;4976069;28;20705;-82
2022/09/20 15:19:22;;;;;;;2.95;2.30;;;;;;;;;;4959237;28;20235;-82
2022/09/20 15:21:50;;;;;;;2.85;2.03;;;;;;;;;;4963217;28;20749;-82
2022/09/20 15:24:17;;;;;;;2.50;2.30;;;;;;;;;;4976209;28;20194;-82
2022/09/20 15:26:44;;;;;;;3.60;2.05;;;;;;;;;;4975458;28;20202;-82